LKMTLKPD

Guest
Details From LKMT - Ostrava Mosnov
To LKPD - Pardubice
Flight Number -
Tags generated
Created
Modified
Stats Distance 94 nm / 174 km
Max Altitude 3,600 ft / 1,097 m
Waypoints 3
Social Downloads 1
Likes 0
Share VATSIM

Download

Looking for another format? Having issues loading an existing format? Contact us
Advertisement - Login to hide

Notes

Basic altitude profile: - Ascent Rate: 2500ft/min - Ascent Speed: 250kts - Cruise Altitude: 5000ft - Cruise Speed: 420kts - Descent Rate: 1500ft/min - Descent Speed: 250kts Options: - Use NATs: yes - Use PACOTS: yes - Use low airways: yes - Use high airways: yes

Route

LKMT MONOV LKPD

ID Type Via Altitude Latitude Longitude Leg Dist Tot Dist Heading (true) Name
O LKMT APT - 0 ft / 0 m 49.69622˚ 18.11085˚ - 0 nm - Ostrava Mosnov
MONOV FIX - 3,600 ft / 1,097 m 49.72753˚ 17.85128˚ 10 nm 10 nm 281° / 280° -
O LKPD APT - 0 ft / 0 m 50.01346˚ 15.73857˚ 83 nm 93 nm 283° / 281° Pardubice

Altitude Profile

Advertisement - Login to hide

LKMT

Details ICAO LKMT (OSR)
Name Ostrava Mosnov
Region Czech Republic
Timezone Europe/Prague (UTC+1.0)
Stats Elevation 843 ft / 257 m (AMSL)
Location 49.696217° 18.110855°
Runways 1
Magnetic Variation 4.764° E

METAR

LKMT 161300Z 24003KT 8000 FEW020 BKN045 02/M01 Q1007 NOSIG

Decode

TAF

TAF TAF LKMT 161100Z 1612/1718 VRB02KT 9999 BKN033 TEMPO 1618/1700 SCT033 BECMG 1620/1623 22004KT PROB30 TEMPO 1701/1708 5000 -SN BKN012

Decode

Departure Runways

ID Width Length Bearing (true) Bearing (mag) Surface Threshold Offset Overrun Length
04 207 ft / 63 m 11,532 ft / 3,515 m 46.29° 41.53° Concrete 0 ft / 0 m 52 ft / 16 m
22 207 ft / 63 m 11,532 ft / 3,515 m 226.31° 221.55° Concrete 0 ft / 0 m 49 ft / 15 m

LKPD

Details ICAO LKPD (PED)
Name Pardubice
Region Czech Republic
Timezone Europe/Prague (UTC+1.0)
Stats Elevation 741 ft / 226 m (AMSL)
Location 50.013463° 15.738572°
Runways 1
Magnetic Variation 4.225° E

METAR

LKPD 161300Z 29004KT 9999 FEW020 OVC047 03/M02 Q1007 NOSIG RMK BLU BLU

Decode

TAF

TAF LKPD 161100Z 1612/1712 27010KT 9999 BKN035 TEMPO 1612/1618 27004KT SCT015 BKN045 PROB30 TEMPO 1618/1703 5000 SNRA BKN012 TEMPO 1704/1712 7000 SNRA BKN012 OVC020

Decode

Destination Runways

ID Width Length Bearing (true) Bearing (mag) Surface Threshold Offset Overrun Length
09 246 ft / 75 m 8,174 ft / 2,491 m 92.79° 88.56° Concrete 0 ft / 0 m 0 ft / 0 m
27 246 ft / 75 m 8,174 ft / 2,491 m 272.81° 268.58° Concrete 0 ft / 0 m 0 ft / 0 m

Approach Navaids

Runway Type Ident Frequency Range Bearing (true) Bearing (mag) Slope Elevation
27 Localiser PK 109.35 MHz 18 nm / 33 km 272.75° 268.53° - 780 ft / 238 m (AMSL)
27 Glidescope PK 109.35 MHz 10 nm / 19 km 272.80° 268.57° 3.00° 732 ft / 223 m (AMSL)
27 DME PK 109.35 MHz 18 nm / 33 km - - - 780 ft / 238 m (AMSL)